createdAt,value
2019-01-14T00:01:35.782Z,9.49
2019-01-14T00:04:05.273Z,9.47
2019-01-14T00:06:34.632Z,9.46
2019-01-14T00:09:05.849Z,9.45
2019-01-14T00:11:35.231Z,9.44
2019-01-14T00:14:04.635Z,9.42
2019-01-14T00:16:33.990Z,9.40
2019-01-14T00:19:05.449Z,9.38
2019-01-14T00:21:34.849Z,9.36
2019-01-14T00:24:04.194Z,9.37
2019-01-14T00:26:33.586Z,9.37
2019-01-14T00:29:03.025Z,9.38
2019-01-14T00:31:32.367Z,9.41
2019-01-14T00:34:01.916Z,9.43
2019-01-14T00:36:31.440Z,9.44
2019-01-14T00:39:00.797Z,9.46
2019-01-14T00:41:30.171Z,9.47
2019-01-14T00:43:59.536Z,9.47
2019-01-14T00:46:28.895Z,9.50
2019-01-14T00:48:58.234Z,9.50
2019-01-14T00:51:27.595Z,9.52
2019-01-14T00:53:56.932Z,9.54
2019-01-14T00:56:26.317Z,9.55
2019-01-14T00:58:55.680Z,9.56
2019-01-14T01:01:25.075Z,9.57
2019-01-14T01:03:54.553Z,9.57
2019-01-14T01:06:24.821Z,9.57
2019-01-14T01:08:54.376Z,9.57
2019-01-14T01:11:23.748Z,9.55
2019-01-14T01:13:53.141Z,9.52
2019-01-14T01:16:22.479Z,9.52
2019-01-14T01:18:51.939Z,9.50
2019-01-14T01:21:21.293Z,9.52
2019-01-14T01:23:50.665Z,9.52
2019-01-14T01:26:20.037Z,9.52
2019-01-14T01:28:49.416Z,9.52
2019-01-14T01:31:18.805Z,9.53
2019-01-14T01:33:48.184Z,9.53
2019-01-14T01:36:17.523Z,9.52
2019-01-14T01:38:46.913Z,9.54
2019-01-14T01:41:16.272Z,9.53
2019-01-14T01:43:46.656Z,9.52
2019-01-14T01:46:16.053Z,9.53
2019-01-14T01:48:47.205Z,9.52
2019-01-14T01:51:16.552Z,9.52
2019-01-14T01:53:45.954Z,9.53
2019-01-14T01:56:15.341Z,9.52
2019-01-14T01:58:44.703Z,9.53
2019-01-14T02:01:14.097Z,9.54
2019-01-14T02:03:43.462Z,9.53
2019-01-14T02:06:12.817Z,9.55
2019-01-14T02:08:42.187Z,9.55
2019-01-14T02:11:11.533Z,9.54
2019-01-14T02:13:40.926Z,9.56
2019-01-14T02:16:10.297Z,9.56
2019-01-14T02:18:39.650Z,9.55
2019-01-14T02:21:09.030Z,9.53
2019-01-14T02:23:38.414Z,9.51
2019-01-14T02:26:07.771Z,9.50
2019-01-14T02:28:37.147Z,9.49
2019-01-14T02:31:06.517Z,9.48
2019-01-14T02:33:36.918Z,9.47
2019-01-14T02:36:06.301Z,9.47
2019-01-14T02:38:36.202Z,9.45
2019-01-14T02:41:05.560Z,9.44
2019-01-14T02:43:34.941Z,9.42
2019-01-14T02:46:04.324Z,9.41
2019-01-14T02:48:33.710Z,9.40
2019-01-14T02:51:03.052Z,9.41
2019-01-14T02:53:32.408Z,9.42
2019-01-14T02:56:01.765Z,9.42
2019-01-14T02:58:31.270Z,9.43
2019-01-14T03:01:00.604Z,9.44
2019-01-14T03:03:30.955Z,9.42
2019-01-14T03:06:00.340Z,9.44
2019-01-14T03:08:29.700Z,9.45
2019-01-14T03:10:59.052Z,9.46
2019-01-14T03:13:28.437Z,9.46
2019-01-14T03:15:59.986Z,9.47
2019-01-14T03:18:29.335Z,9.47
2019-01-14T03:20:58.685Z,9.47
2019-01-14T03:23:28.068Z,9.47
2019-01-14T03:25:58.378Z,9.47
2019-01-14T03:28:27.851Z,9.48
2019-01-14T03:30:57.219Z,9.48
2019-01-14T03:33:26.664Z,9.47
2019-01-14T03:35:56.023Z,9.46
2019-01-14T03:38:25.398Z,9.46
2019-01-14T03:40:54.777Z,9.47
2019-01-14T03:43:24.159Z,9.46
2019-01-14T03:45:53.541Z,9.45
2019-01-14T03:48:22.929Z,9.44
2019-01-14T03:50:52.283Z,9.42
2019-01-14T03:53:21.648Z,9.37
2019-01-14T03:55:51.036Z,9.35
2019-01-14T03:58:21.383Z,9.31
2019-01-14T04:00:50.752Z,9.27
2019-01-14T04:03:20.121Z,9.26
2019-01-14T04:05:49.498Z,9.23
2019-01-14T04:08:18.874Z,9.20
2019-01-14T04:10:48.198Z,9.18
2019-01-14T04:13:17.601Z,9.17
2019-01-14T04:15:46.996Z,9.18
2019-01-14T04:18:16.330Z,9.17
2019-01-14T04:20:45.692Z,9.17
2019-01-14T04:23:15.033Z,9.16
2019-01-14T04:25:44.415Z,9.17
2019-01-14T04:28:13.780Z,9.17
2019-01-14T04:30:43.136Z,9.18
2019-01-14T04:33:12.512Z,9.18
2019-01-14T04:35:41.871Z,9.19
2019-01-14T04:38:11.256Z,9.20
2019-01-14T04:40:40.603Z,9.18
2019-01-14T04:43:09.955Z,9.18
2019-01-14T04:45:39.314Z,9.18
2019-01-14T04:48:08.664Z,9.19
2019-01-14T04:50:38.031Z,9.19
2019-01-14T04:53:07.381Z,9.20
2019-01-14T04:55:36.736Z,9.19
2019-01-14T04:58:06.136Z,9.18
2019-01-14T05:00:35.575Z,9.19
2019-01-14T05:03:04.937Z,9.19
2019-01-14T05:05:34.269Z,9.19
2019-01-14T05:08:03.641Z,9.17
2019-01-14T05:10:33.007Z,9.18
2019-01-14T05:13:02.387Z,9.17
2019-01-14T05:15:31.792Z,9.17
2019-01-14T05:18:01.189Z,9.16
2019-01-14T05:20:30.517Z,9.15
2019-01-14T05:22:59.871Z,9.13
2019-01-14T05:25:29.227Z,9.12
2019-01-14T05:27:58.621Z,9.08
2019-01-14T05:30:28.008Z,9.08
2019-01-14T05:32:57.375Z,9.06
2019-01-14T05:35:26.708Z,9.04
2019-01-14T05:37:56.071Z,9.03
2019-01-14T05:40:26.637Z,9.03
2019-01-14T05:42:56.015Z,9.02
2019-01-14T05:45:25.662Z,9.02
2019-01-14T05:47:55.013Z,9.01
2019-01-14T05:50:24.363Z,9.02
2019-01-14T05:52:53.803Z,9.02
2019-01-14T05:55:23.176Z,9.03
2019-01-14T05:57:52.558Z,9.05
2019-01-14T06:00:29.482Z,9.04
2019-01-14T06:02:58.816Z,9.05
2019-01-14T06:05:28.222Z,9.05
2019-01-14T06:07:57.597Z,9.04
2019-01-14T06:10:26.978Z,9.05
2019-01-14T06:12:56.360Z,9.04
2019-01-14T06:15:26.319Z,9.06
2019-01-14T06:17:55.701Z,9.04
2019-01-14T06:20:26.867Z,9.05
2019-01-14T06:22:56.226Z,9.04
2019-01-14T06:25:25.699Z,9.05
2019-01-14T06:27:55.074Z,9.05
2019-01-14T06:30:26.257Z,9.06
2019-01-14T06:32:55.625Z,9.06
2019-01-14T06:35:25.036Z,9.05
2019-01-14T06:37:54.376Z,9.03
2019-01-14T06:40:23.921Z,9.05
2019-01-14T06:42:53.297Z,9.04
2019-01-14T06:45:22.670Z,9.05
2019-01-14T06:47:52.034Z,9.04
2019-01-14T06:50:21.554Z,9.02
2019-01-14T06:52:50.951Z,8.99
2019-01-14T06:55:40.935Z,8.96
2019-01-14T06:58:10.358Z,8.93
2019-01-14T07:00:39.708Z,8.90
2019-01-14T07:03:09.074Z,8.87
2019-01-14T07:05:38.438Z,8.83
2019-01-14T07:08:07.942Z,8.80
2019-01-14T07:10:37.425Z,8.80
2019-01-14T07:13:06.873Z,8.77
2019-01-14T07:15:36.242Z,8.77
2019-01-14T07:18:05.707Z,8.75
2019-01-14T07:20:35.137Z,8.73
2019-01-14T07:23:04.589Z,8.73
2019-01-14T07:25:33.946Z,8.71
2019-01-14T07:28:03.287Z,8.70
2019-01-14T07:30:32.672Z,8.70
2019-01-14T07:33:02.014Z,8.70
2019-01-14T07:35:31.363Z,8.72
2019-01-14T07:38:06.630Z,8.72
2019-01-14T07:40:31.904Z,8.72
2019-01-14T07:43:01.247Z,8.72
2019-01-14T07:45:30.632Z,8.73
2019-01-14T07:48:00.018Z,8.74
2019-01-14T07:50:29.380Z,8.74
2019-01-14T07:52:58.750Z,8.74
2019-01-14T07:55:28.458Z,8.74
2019-01-14T07:57:57.830Z,8.73
2019-01-14T08:00:27.949Z,8.72
2019-01-14T08:02:57.299Z,8.71
2019-01-14T08:05:26.768Z,8.72
2019-01-14T08:07:56.124Z,8.73
2019-01-14T08:10:25.519Z,8.72
2019-01-14T08:12:54.892Z,8.75
2019-01-14T08:15:24.282Z,8.75
2019-01-14T08:17:53.623Z,8.75
2019-01-14T08:20:23.006Z,8.78
2019-01-14T08:22:52.347Z,8.78
2019-01-14T08:25:21.699Z,8.80
2019-01-14T08:27:51.071Z,8.82
2019-01-14T08:30:22.886Z,8.84
2019-01-14T08:32:52.280Z,8.86
2019-01-14T08:35:22.608Z,8.89
2019-01-14T08:37:52.033Z,8.88
2019-01-14T08:40:21.421Z,8.89
2019-01-14T08:42:50.765Z,8.91
2019-01-14T08:45:20.142Z,8.91
2019-01-14T08:47:49.516Z,8.93
2019-01-14T08:50:20.633Z,8.96
2019-01-14T08:52:50.369Z,8.97
2019-01-14T08:55:19.810Z,8.99
2019-01-14T08:57:54.439Z,9.00
2019-01-14T09:00:22.038Z,9.01
2019-01-14T09:02:51.516Z,9.03
2019-01-14T09:05:21.121Z,9.02
2019-01-14T09:07:50.451Z,9.03
2019-01-14T09:10:22.848Z,9.03
2019-01-14T09:12:52.206Z,9.05
2019-01-14T09:15:21.556Z,9.05
2019-01-14T09:17:50.922Z,9.07
2019-01-14T09:20:22.102Z,9.09
2019-01-14T09:22:51.584Z,9.09
2019-01-14T09:25:20.981Z,9.11
2019-01-14T09:27:50.434Z,9.12
2019-01-14T09:30:26.878Z,9.13
2019-01-14T09:32:56.372Z,9.15
2019-01-14T09:35:25.839Z,9.16
2019-01-14T09:37:55.174Z,9.17
2019-01-14T09:40:25.464Z,9.18
2019-01-14T09:42:54.815Z,9.19
2019-01-14T09:45:24.172Z,9.20
2019-01-14T09:47:53.557Z,9.21
2019-01-14T09:50:25.255Z,9.23
2019-01-14T09:52:55.743Z,9.25
2019-01-14T09:55:25.082Z,9.27
2019-01-14T09:57:54.466Z,9.29
2019-01-14T10:00:23.873Z,9.32
2019-01-14T10:02:55.574Z,9.32
2019-01-14T10:05:26.308Z,9.34
2019-01-14T10:07:55.660Z,9.34
2019-01-14T10:10:25.034Z,9.35
2019-01-14T10:12:54.353Z,9.36
2019-01-14T10:15:27.965Z,9.37
2019-01-14T10:18:00.584Z,9.40
2019-01-14T10:20:29.953Z,9.40
2019-01-14T10:22:59.301Z,9.42
2019-01-14T10:25:28.675Z,9.45
2019-01-14T10:27:58.046Z,9.45
2019-01-14T10:30:27.411Z,9.46
2019-01-14T10:32:56.762Z,9.49
2019-01-14T10:35:26.103Z,9.50
2019-01-14T10:37:55.492Z,9.52
2019-01-14T10:40:24.848Z,9.52
2019-01-14T10:42:54.246Z,9.53
2019-01-14T10:45:24.706Z,9.55
2019-01-14T10:47:54.162Z,9.55
2019-01-14T10:50:24.737Z,9.55
2019-01-14T10:52:54.159Z,9.56
2019-01-14T10:55:23.493Z,9.57
2019-01-14T10:57:52.925Z,9.56
2019-01-14T11:00:25.005Z,9.56
2019-01-14T11:02:54.729Z,9.55
2019-01-14T11:05:29.080Z,9.55
2019-01-14T11:07:58.421Z,9.56
2019-01-14T11:10:29.119Z,9.57
2019-01-14T11:12:58.557Z,9.59
2019-01-14T11:15:29.563Z,9.61
2019-01-14T11:17:59.052Z,9.63
2019-01-14T11:20:30.505Z,9.66
2019-01-14T11:23:00.703Z,9.65
2019-01-14T11:25:30.159Z,9.65
2019-01-14T11:28:01.316Z,9.66
2019-01-14T11:30:32.411Z,9.67
2019-01-14T11:33:01.752Z,9.67
2019-01-14T11:35:32.329Z,9.68
2019-01-14T11:38:02.953Z,9.69
2019-01-14T11:40:40.846Z,9.71
2019-01-14T11:43:10.187Z,9.70
2019-01-14T11:45:40.560Z,9.70
2019-01-14T11:48:11.692Z,9.71
2019-01-14T11:50:41.107Z,9.70
2019-01-14T11:53:11.684Z,9.69
2019-01-14T11:55:41.045Z,9.70
2019-01-14T11:58:10.387Z,9.69
2019-01-14T12:00:39.740Z,9.70
2019-01-14T12:03:09.108Z,9.71
2019-01-14T12:05:38.482Z,9.71
2019-01-14T12:08:09.795Z,9.71
2019-01-14T12:10:39.234Z,9.71
2019-01-14T12:13:08.602Z,9.70
2019-01-14T12:15:39.046Z,9.71
2019-01-14T12:18:09.831Z,9.71
2019-01-14T12:20:39.171Z,9.71
2019-01-14T12:23:08.838Z,9.70
2019-01-14T12:25:39.963Z,9.70
2019-01-14T12:28:11.202Z,9.70
2019-01-14T12:30:42.981Z,9.71
2019-01-14T12:33:12.404Z,9.73
2019-01-14T12:35:41.736Z,9.73
2019-01-14T12:38:11.101Z,9.75
2019-01-14T12:40:40.550Z,9.75
2019-01-14T12:43:11.450Z,9.75
2019-01-14T12:45:41.803Z,9.76
2019-01-14T12:48:12.161Z,9.75
2019-01-14T12:50:42.696Z,9.73
2019-01-14T12:53:12.054Z,9.72
2019-01-14T12:55:41.511Z,9.71
2019-01-14T12:58:10.856Z,9.70
2019-01-14T13:00:40.215Z,9.69
2019-01-14T13:03:10.589Z,9.67
2019-01-14T13:05:40.061Z,9.68
2019-01-14T13:08:09.500Z,9.67
2019-01-14T13:10:38.963Z,9.68
2019-01-14T13:13:08.324Z,9.69
2019-01-14T13:15:39.132Z,9.71
2019-01-14T13:18:08.485Z,9.70
2019-01-14T13:20:37.848Z,9.71
2019-01-14T13:23:07.221Z,9.72
2019-01-14T13:25:36.631Z,9.71
2019-01-14T13:28:06.243Z,9.72
2019-01-14T13:30:37.450Z,9.72
2019-01-14T13:33:06.840Z,9.70
2019-01-14T13:35:36.305Z,9.70
2019-01-14T13:38:05.759Z,9.70
2019-01-14T13:40:35.180Z,9.70
2019-01-14T13:43:04.547Z,9.71
2019-01-14T13:46:00.293Z,9.74
2019-01-14T13:48:29.860Z,9.78
2019-01-14T13:51:00.671Z,9.81
2019-01-14T13:53:30.069Z,9.82
2019-01-14T13:55:59.721Z,9.84
2019-01-14T13:58:29.161Z,9.86
2019-01-14T14:00:59.538Z,9.88
2019-01-14T14:03:30.719Z,9.89
2019-01-14T14:06:00.092Z,9.90
2019-01-14T14:08:29.545Z,9.91
2019-01-14T14:10:58.931Z,9.93
2019-01-14T14:13:28.368Z,9.93
2019-01-14T14:15:59.576Z,9.92
2019-01-14T14:18:28.971Z,9.90
2019-01-14T14:20:58.331Z,9.89
2019-01-14T14:23:27.680Z,9.89
2019-01-14T14:25:57.070Z,9.87
2019-01-14T14:28:26.533Z,9.86
2019-01-14T14:30:55.995Z,9.84
2019-01-14T14:33:25.366Z,9.84
2019-01-14T14:35:54.948Z,9.84
2019-01-14T14:38:24.309Z,9.81
2019-01-14T14:40:55.082Z,9.81
2019-01-14T14:43:25.464Z,9.80
2019-01-14T14:45:54.925Z,9.79
2019-01-14T14:48:24.414Z,9.77
2019-01-14T14:50:53.809Z,9.75
2019-01-14T14:53:23.152Z,9.73
2019-01-14T14:55:52.498Z,9.71
2019-01-14T14:58:21.862Z,9.70
2019-01-14T15:00:51.196Z,9.67
2019-01-14T15:03:20.611Z,9.65
2019-01-14T15:05:49.935Z,9.63
2019-01-14T15:08:19.262Z,9.62
2019-01-14T15:10:48.603Z,9.61
2019-01-14T15:13:17.976Z,9.59
2019-01-14T15:15:47.344Z,9.59
2019-01-14T15:18:16.718Z,9.58
2019-01-14T15:20:46.085Z,9.55
2019-01-14T15:23:15.439Z,9.54
2019-01-14T15:25:44.821Z,9.52
2019-01-14T15:28:18.789Z,9.50
2019-01-14T15:30:48.154Z,9.49
2019-01-14T15:33:17.610Z,9.47
2019-01-14T15:35:46.947Z,9.45
2019-01-14T15:38:16.299Z,9.42
2019-01-14T15:40:45.690Z,9.41
2019-01-14T15:43:15.067Z,9.40
2019-01-14T15:45:44.410Z,9.39
2019-01-14T15:48:13.775Z,9.37
2019-01-14T15:50:43.122Z,9.33
2019-01-14T15:53:12.508Z,9.35
2019-01-14T15:55:41.863Z,9.33
2019-01-14T15:58:11.233Z,9.32
2019-01-14T16:00:40.573Z,9.32
2019-01-14T16:03:09.929Z,9.30
2019-01-14T16:05:39.294Z,9.29
2019-01-14T16:08:08.668Z,9.28
2019-01-14T16:10:38.189Z,9.25
2019-01-14T16:13:07.708Z,9.25
2019-01-14T16:15:37.067Z,9.23
2019-01-14T16:18:06.417Z,9.23
2019-01-14T16:20:35.801Z,9.21
2019-01-14T16:23:05.145Z,9.20
2019-01-14T16:25:34.500Z,9.19
2019-01-14T16:28:03.857Z,9.18
2019-01-14T16:30:33.230Z,9.16
2019-01-14T16:33:02.585Z,9.17
2019-01-14T16:35:31.950Z,9.16
2019-01-14T16:38:04.160Z,9.13
2019-01-14T16:40:33.645Z,9.12
2019-01-14T16:43:04.453Z,9.11
2019-01-14T16:45:33.947Z,9.10
2019-01-14T16:48:03.327Z,9.07
2019-01-14T16:50:32.728Z,9.06
2019-01-14T16:53:04.117Z,9.03
2019-01-14T16:55:52.403Z,9.02
2019-01-14T16:58:21.777Z,9.01
2019-01-14T17:00:53.217Z,8.98
2019-01-14T17:03:22.582Z,8.97
2019-01-14T17:05:52.345Z,8.96
2019-01-14T17:08:21.709Z,8.95
2019-01-14T17:10:51.101Z,8.93
2019-01-14T17:13:20.468Z,8.92
2019-01-14T17:15:49.838Z,8.91
2019-01-14T17:18:19.212Z,8.90
2019-01-14T17:20:48.553Z,8.89
2019-01-14T17:23:17.963Z,8.89
2019-01-14T17:25:47.308Z,8.89
2019-01-14T17:28:16.683Z,8.88
2019-01-14T17:30:46.074Z,8.89
2019-01-14T17:33:15.426Z,8.87
2019-01-14T17:35:47.153Z,8.87
2019-01-14T17:38:16.509Z,8.87
2019-01-14T17:40:45.889Z,8.88
2019-01-14T17:43:15.240Z,8.86
2019-01-14T17:45:44.586Z,8.86
2019-01-14T17:48:14.032Z,8.85
2019-01-14T17:50:43.407Z,8.84
2019-01-14T17:53:12.844Z,8.84
2019-01-14T17:55:42.237Z,8.84
2019-01-14T17:58:11.634Z,8.84
2019-01-14T18:00:41.084Z,8.85
2019-01-14T18:03:10.446Z,8.84
2019-01-14T18:05:39.817Z,8.85
2019-01-14T18:08:09.204Z,8.86
2019-01-14T18:10:40.110Z,8.86
2019-01-14T18:13:09.803Z,8.86
2019-01-14T18:15:39.168Z,8.86
2019-01-14T18:18:08.539Z,8.86
2019-01-14T18:20:37.892Z,8.85
2019-01-14T18:23:07.261Z,8.85
2019-01-14T18:25:36.642Z,8.84
2019-01-14T18:28:06.021Z,8.84
2019-01-14T18:30:35.469Z,8.83
2019-01-14T18:33:04.917Z,8.83
2019-01-14T18:35:34.267Z,8.83
2019-01-14T18:38:03.644Z,8.83
2019-01-14T18:40:34.050Z,8.83
2019-01-14T18:43:09.344Z,8.83
2019-01-14T18:45:38.708Z,8.82
2019-01-14T18:48:08.087Z,8.81
2019-01-14T18:50:37.447Z,8.80
2019-01-14T18:53:06.838Z,8.76
2019-01-14T18:55:36.303Z,8.74
2019-01-14T18:58:05.663Z,8.74
2019-01-14T19:00:35.042Z,8.72
2019-01-14T19:03:04.519Z,8.72
2019-01-14T19:05:33.895Z,8.71
2019-01-14T19:08:03.268Z,8.70
2019-01-14T19:10:32.829Z,8.70
2019-01-14T19:13:02.186Z,8.70
2019-01-14T19:15:31.548Z,8.71
2019-01-14T19:18:01.097Z,8.69
2019-01-14T19:20:30.566Z,8.67
2019-01-14T19:22:59.963Z,8.66
2019-01-14T19:25:29.306Z,8.66
2019-01-14T19:27:58.821Z,8.66
2019-01-14T19:30:28.190Z,8.66
2019-01-14T19:32:57.558Z,8.68
2019-01-14T19:35:26.929Z,8.67
2019-01-14T19:37:56.292Z,8.67
2019-01-14T19:40:25.743Z,8.67
2019-01-14T19:42:55.110Z,8.67
2019-01-14T19:45:24.491Z,8.67
2019-01-14T19:47:53.850Z,8.67
2019-01-14T19:50:24.590Z,8.67
2019-01-14T19:52:55.232Z,8.68
2019-01-14T19:55:24.686Z,8.69
2019-01-14T19:57:54.454Z,8.70
2019-01-14T20:00:28.940Z,8.69
2019-01-14T20:02:58.388Z,8.70
2019-01-14T20:05:27.727Z,8.69
2019-01-14T20:07:57.097Z,8.70
2019-01-14T20:10:26.456Z,8.70
2019-01-14T20:12:56.562Z,8.71
2019-01-14T20:15:25.914Z,8.71
2019-01-14T20:17:55.295Z,8.72
2019-01-14T20:20:24.667Z,8.71
2019-01-14T20:22:54.046Z,8.72
2019-01-14T20:25:23.421Z,8.73
2019-01-14T20:27:52.821Z,8.73
2019-01-14T20:30:23.734Z,8.73
2019-01-14T20:32:53.201Z,8.73
2019-01-14T20:35:22.577Z,8.75
2019-01-14T20:37:52.025Z,8.74
2019-01-14T20:40:21.378Z,8.76
2019-01-14T20:42:50.769Z,8.75
2019-01-14T20:45:20.108Z,8.75
2019-01-14T20:47:49.471Z,8.76
2019-01-14T20:50:20.264Z,8.75
2019-01-14T20:52:49.705Z,8.76
2019-01-14T20:55:19.089Z,8.76
2019-01-14T20:57:49.369Z,8.75
2019-01-14T21:00:22.658Z,8.75
2019-01-14T21:02:53.363Z,8.76
2019-01-14T21:05:23.596Z,8.75
2019-01-14T21:07:53.038Z,8.75
2019-01-14T21:10:22.796Z,8.73
2019-01-14T21:12:52.231Z,8.73
2019-01-14T21:15:21.851Z,8.73
2019-01-14T21:17:51.439Z,8.72
2019-01-14T21:20:22.986Z,8.72
2019-01-14T21:22:53.132Z,8.71
2019-01-14T21:25:22.718Z,8.71
2019-01-14T21:27:52.173Z,8.70
2019-01-14T21:30:23.661Z,8.70
2019-01-14T21:32:53.352Z,8.69
2019-01-14T21:35:23.193Z,8.69
2019-01-14T21:37:57.582Z,8.71
2019-01-14T21:40:29.415Z,8.72
2019-01-14T21:43:08.222Z,8.73
2019-01-14T21:45:38.100Z,8.73
2019-01-14T21:48:07.743Z,8.74
2019-01-14T21:50:37.216Z,8.75
2019-01-14T21:53:06.900Z,8.76
2019-01-14T21:55:36.448Z,8.76
2019-01-14T21:58:06.031Z,8.78
2019-01-14T22:00:35.571Z,8.79
2019-01-14T22:03:05.175Z,8.79
2019-01-14T22:05:34.673Z,8.81
2019-01-14T22:08:04.233Z,8.80
2019-01-14T22:10:34.011Z,8.80
2019-01-14T22:13:03.506Z,8.81
2019-01-14T22:15:32.942Z,8.81
2019-01-14T22:18:02.555Z,8.81
2019-01-14T22:20:32.128Z,8.80
2019-01-14T22:23:01.808Z,8.82
2019-01-14T22:25:31.316Z,8.83
2019-01-14T22:28:00.880Z,8.83
2019-01-14T22:30:34.775Z,8.82
2019-01-14T22:33:04.654Z,8.82
2019-01-14T22:35:34.099Z,8.81
2019-01-14T22:38:03.876Z,8.80
2019-01-14T22:40:33.425Z,8.81
2019-01-14T22:43:04.299Z,8.79
2019-01-14T22:45:33.746Z,8.79
2019-01-14T22:48:03.115Z,8.79
2019-01-14T22:50:32.464Z,8.78
2019-01-14T22:53:01.853Z,8.78
2019-01-14T22:55:31.238Z,8.77
2019-01-14T22:58:00.619Z,8.77
2019-01-14T23:01:01.014Z,8.77
2019-01-14T23:03:30.384Z,8.78
2019-01-14T23:05:59.723Z,8.77
2019-01-14T23:08:29.096Z,8.76
2019-01-14T23:10:58.434Z,8.76
2019-01-14T23:13:27.824Z,8.76
2019-01-14T23:15:58.191Z,8.76
2019-01-14T23:18:27.612Z,8.76
2019-01-14T23:20:56.982Z,8.75
2019-01-14T23:23:26.335Z,8.76
2019-01-14T23:25:55.697Z,8.75
2019-01-14T23:28:25.029Z,8.75
2019-01-14T23:30:54.415Z,8.74
2019-01-14T23:33:23.773Z,8.75
2019-01-14T23:35:53.244Z,8.75
2019-01-14T23:38:22.587Z,8.75
2019-01-14T23:40:51.918Z,8.74
2019-01-14T23:43:21.461Z,8.74
2019-01-14T23:45:50.777Z,8.76
2019-01-14T23:48:20.132Z,8.77
2019-01-14T23:50:49.490Z,8.77
2019-01-14T23:53:18.907Z,8.78
2019-01-14T23:55:48.277Z,8.79
2019-01-14T23:58:17.616Z,8.80
